Time;durP1;ratioP1;P1;durP2;ratioP2;P2;SDS_P1;SDS_P2;PMS_P1;PMS_P2;Temp;Humidity;BMP_temperature;BMP_pressure;BME280_temperature;BME280_humidity;BME280_pressure;Samples;Min_cycle;Max_cycle;Signal;HPM_P1;HPM_P2
2023/09/18 00:00:51;;;;;;;48.57;8.20;;;24.70;87.20;;;;;;4980803;28;1073421;-75
2023/09/18 00:03:19;;;;;;;38.63;7.75;;;24.70;86.50;;;;;;5023525;28;20038;-78
2023/09/18 00:05:46;;;;;;;38.47;8.23;;;24.70;87.00;;;;;;5023111;28;20061;-76
2023/09/18 00:08:11;;;;;;;45.00;7.63;;;24.70;86.90;;;;;;5021871;28;20104;-77
2023/09/18 00:10:37;;;;;;;37.67;7.85;;;24.60;87.60;;;;;;5026413;28;20473;-75
2023/09/18 00:13:03;;;;;;;43.78;7.75;;;24.60;86.20;;;;;;5019163;28;20038;-79
2023/09/18 00:15:29;;;;;;;63.55;9.20;;;24.60;86.80;;;;;;5025926;28;20020;-79
2023/09/18 00:17:55;;;;;;;45.17;9.05;;;24.50;86.90;;;;;;5013730;28;20080;-77
2023/09/18 00:20:26;;;;;;;43.88;7.47;;;24.50;86.70;;;;;;5024691;28;20025;-78
2023/09/18 00:22:55;;;;;;;37.95;7.50;;;24.50;87.90;;;;;;5019610;28;20405;-79
2023/09/18 00:25:21;;;;;;;50.13;8.55;;;24.50;87.40;;;;;;5022168;28;20022;-76
2023/09/18 00:27:46;;;;;;;42.00;7.75;;;24.50;87.40;;;;;;5019140;28;20033;-78
2023/09/18 00:30:12;;;;;;;44.07;9.07;;;24.50;87.70;;;;;;5014895;28;20034;-78
2023/09/18 00:32:38;;;;;;;30.80;7.35;;;24.50;88.40;;;;;;5023661;28;20616;-76
2023/09/18 00:35:04;;;;;;;46.75;8.10;;;24.40;87.50;;;;;;5024741;28;20026;-80
2023/09/18 00:37:30;;;;;;;36.13;5.63;;;24.40;87.50;;;;;;5017818;28;20055;-78
2023/09/18 00:39:56;;;;;;;21.58;4.63;;;24.40;85.20;;;;;;5016574;28;20038;-75
2023/09/18 00:42:22;;;;;;;19.55;3.90;;;24.40;84.80;;;;;;5024726;28;20109;-75
2023/09/18 00:44:50;;;;;;;;;;;24.40;79.60;;;;;;5021749;28;20030;-78
2023/09/18 00:47:17;;;;;;;16.00;3.45;;;24.30;79.60;;;;;;5012782;28;19909;-77
2023/09/18 00:49:46;;;;;;;9.80;2.50;;;24.20;78.20;;;;;;5023648;28;20143;-75
2023/09/18 00:52:12;;;;;;;15.35;2.67;;;24.20;77.70;;;;;;5018917;28;20125;-78
2023/09/18 00:54:41;;;;;;;6.95;1.88;;;24.20;78.80;;;;;;5023801;28;20494;-76
2023/09/18 00:57:06;;;;;;;9.48;1.85;;;24.10;76.40;;;;;;5015763;28;20544;-79
2023/09/18 00:59:33;;;;;;;4.88;1.27;;;24.10;75.80;;;;;;5023177;28;20034;-78
2023/09/18 01:01:59;;;;;;;8.95;1.50;;;24.00;75.40;;;;;;5018334;28;20114;-79
2023/09/18 01:04:28;;;;;;;9.52;1.90;;;24.00;76.30;;;;;;5022228;28;20397;-80
2023/09/18 01:06:56;;;;;;;11.77;1.60;;;23.90;75.80;;;;;;5019864;28;20025;-79
2023/09/18 01:09:22;;;;;;;8.65;1.58;;;24.00;76.10;;;;;;5027444;28;20030;-80
2023/09/18 01:12:01;;;;;;;10.00;1.20;;;23.90;75.30;;;;;;5036970;28;20042;-80
2023/09/18 01:14:44;;;;;;;9.90;1.35;;;23.90;76.60;;;;;;5022804;28;20045;-79
2023/09/18 01:17:13;;;;;;;5.00;1.08;;;23.90;76.30;;;;;;5020442;28;20022;-79
2023/09/18 01:19:46;;;;;;;12.15;1.63;;;23.90;78.30;;;;;;5021099;28;20056;-78
2023/09/18 01:22:17;;;;;;;5.40;1.02;;;23.60;76.50;;;;;;5021006;28;20049;-76
2023/09/18 01:24:44;;;;;;;6.13;1.35;;;23.60;79.10;;;;;;5021315;28;20026;-77
2023/09/18 01:27:14;;;;;;;7.32;1.45;;;23.50;80.70;;;;;;5018481;28;20025;-75
2023/09/18 01:29:40;;;;;;;10.02;1.30;;;23.40;81.20;;;;;;5014536;28;20105;-75
2023/09/18 01:32:06;;;;;;;7.90;0.82;;;23.30;84.20;;;;;;5011704;28;20510;-79
2023/09/18 01:34:39;;;;;;;7.85;1.17;;;23.30;81.60;;;;;;5018756;28;20034;-74
2023/09/18 01:37:07;;;;;;;5.25;1.08;;;23.40;80.80;;;;;;5026711;28;20026;-79
2023/09/18 01:39:34;;;;;;;3.88;0.80;;;23.30;79.00;;;;;;5019646;28;20107;-73
2023/09/18 01:42:05;;;;;;;27.88;1.77;;;23.30;81.20;;;;;;5021458;28;20519;-74
2023/09/18 01:44:31;;;;;;;6.10;1.30;;;23.10;81.80;;;;;;5017018;28;20048;-76
2023/09/18 01:47:03;;;;;;;5.80;1.27;;;23.10;83.10;;;;;;5031173;28;20416;-76
2023/09/18 01:49:31;;;;;;;3.15;1.02;;;23.10;80.80;;;;;;5021192;28;20013;-80
2023/09/18 01:51:57;;;;;;;10.23;1.33;;;23.10;82.20;;;;;;5021265;28;20046;-78
2023/09/18 01:54:23;;;;;;;3.60;1.08;;;23.00;82.50;;;;;;5019676;28;20060;-75
2023/09/18 01:56:48;;;;;;;4.20;1.15;;;23.10;82.80;;;;;;5019791;28;20038;-79
2023/09/18 01:59:14;;;;;;;5.53;1.38;;;23.10;82.00;;;;;;5021644;28;20105;-76
2023/09/18 02:01:40;;;;;;;8.50;1.47;;;23.00;83.10;;;;;;5020813;28;20053;-77
2023/09/18 02:04:06;;;;;;;3.10;1.20;;;23.00;84.00;;;;;;5018329;28;20398;-74
2023/09/18 02:06:31;;;;;;;8.80;1.27;;;22.90;85.70;;;;;;5019791;28;20390;-74
2023/09/18 02:08:57;;;;;;;3.63;0.93;;;22.80;89.20;;;;;;5020987;28;20038;-77
2023/09/18 02:11:24;;;;;;;6.55;1.75;;;22.70;91.00;;;;;;5024733;28;20123;-76
2023/09/18 02:13:50;;;;;;;8.38;1.30;;;22.60;91.90;;;;;;5013428;28;20083;-73
2023/09/18 02:16:16;;;;;;;4.45;1.27;;;22.30;91.90;;;;;;5019253;28;20049;-73
2023/09/18 02:18:43;;;;;;;8.30;1.80;;;22.40;95.40;;;;;;5020547;28;20498;-73
2023/09/18 02:21:09;;;;;;;7.18;1.42;;;22.40;94.00;;;;;;5020487;28;20034;-74
2023/09/18 02:23:34;;;;;;;7.45;1.27;;;22.30;94.20;;;;;;5017976;28;20026;-72
2023/09/18 02:26:00;;;;;;;6.10;1.40;;;22.00;94.20;;;;;;5022032;28;20120;-73
2023/09/18 02:28:26;;;;;;;4.93;1.87;;;22.00;96.40;;;;;;5019646;28;20398;-73
2023/09/18 02:30:51;;;;;;;8.98;1.85;;;22.00;99.10;;;;;;5022273;28;20713;-73
2023/09/18 02:33:17;;;;;;;6.53;1.90;;;21.80;99.60;;;;;;5025312;28;20107;-73
2023/09/18 02:35:43;;;;;;;7.47;2.03;;;21.80;99.90;;;;;;5024209;28;20029;-74
2023/09/18 02:38:09;;;;;;;11.43;1.70;;;21.70;99.90;;;;;;5017189;28;20033;-72
2023/09/18 02:40:34;;;;;;;10.83;1.70;;;21.50;99.90;;;;;;5019289;28;20076;-73
2023/09/18 02:43:02;;;;;;;10.15;2.42;;;21.60;99.90;;;;;;5017636;28;20280;-73
2023/09/18 02:45:27;;;;;;;11.20;2.85;;;21.70;99.90;;;;;;5022535;28;20089;-73
2023/09/18 02:47:53;;;;;;;13.10;2.95;;;21.60;99.90;;;;;;5015846;28;20036;-73
2023/09/18 02:50:19;;;;;;;14.07;2.50;;;21.50;99.90;;;;;;5022989;28;20026;-74
2023/09/18 02:52:45;;;;;;;12.20;2.30;;;21.50;99.90;;;;;;5016149;28;20103;-73
2023/09/18 02:55:11;;;;;;;17.93;2.20;;;21.20;99.90;;;;;;5021577;28;20060;-72
2023/09/18 02:57:37;;;;;;;8.45;1.88;;;21.10;99.90;;;;;;5020879;28;20827;-73
2023/09/18 03:00:03;;;;;;;12.32;1.98;;;21.20;99.90;;;;;;5017981;28;20121;-72
2023/09/18 03:02:29;;;;;;;9.32;1.80;;;21.40;99.90;;;;;;5025763;28;20037;-73
2023/09/18 03:04:55;;;;;;;8.93;2.40;;;21.30;99.90;;;;;;5022736;28;20060;-73
2023/09/18 03:07:22;;;;;;;11.10;2.60;;;21.40;99.90;;;;;;5017692;28;20128;-73
2023/09/18 03:09:48;;;;;;;;;;;21.30;99.90;;;;;;5031986;28;20049;-71
2023/09/18 03:12:13;;;;;;;9.65;2.47;;;21.30;99.90;;;;;;5021064;28;19918;-73
2023/09/18 03:14:39;;;;;;;9.47;2.37;;;21.40;99.90;;;;;;5021488;28;20116;-72
2023/09/18 03:17:05;;;;;;;8.33;2.77;;;21.10;99.90;;;;;;5023404;28;20167;-72
2023/09/18 03:19:31;;;;;;;11.27;2.95;;;21.30;99.90;;;;;;5022990;28;20307;-71
2023/09/18 03:21:56;;;;;;;13.17;2.80;;;21.30;99.90;;;;;;5027529;28;20045;-73
2023/09/18 03:24:22;;;;;;;20.50;4.20;;;21.20;99.90;;;;;;5026061;28;20136;-73
2023/09/18 03:26:49;;;;;;;12.33;3.10;;;21.30;99.90;;;;;;5025856;28;20080;-71
2023/09/18 03:29:14;;;;;;;13.85;3.33;;;21.30;99.90;;;;;;5026758;28;20295;-71
2023/09/18 03:31:40;;;;;;;8.90;3.28;;;21.20;99.90;;;;;;5018074;28;20034;-73
2023/09/18 03:34:06;;;;;;;12.63;2.97;;;21.10;99.90;;;;;;5025485;28;20038;-73
2023/09/18 03:36:32;;;;;;;16.70;3.30;;;21.20;99.90;;;;;;5024079;28;20029;-74
2023/09/18 03:38:58;;;;;;;;;;;21.10;99.90;;;;;;5019479;28;20153;-74
2023/09/18 03:41:24;;;;;;;18.08;5.07;;;21.00;99.90;;;;;;5013333;28;20007;-74
2023/09/18 03:43:50;;;;;;;17.27;4.07;;;20.90;99.90;;;;;;5015949;28;20457;-74
2023/09/18 03:46:16;;;;;;;;;;;20.90;99.90;;;;;;5019559;28;20030;-74
2023/09/18 03:48:41;;;;;;;27.27;5.63;;;20.60;99.90;;;;;;5013992;28;20435;-73
2023/09/18 03:51:08;;;;;;;25.23;5.60;;;20.40;99.90;;;;;;5015073;28;20751;-74
2023/09/18 03:53:33;;;;;;;;;;;19.90;99.90;;;;;;5015805;28;20058;-73
2023/09/18 03:56:00;;;;;;;23.45;5.57;;;19.80;99.90;;;;;;5015910;28;19949;-73
2023/09/18 03:58:26;;;;;;;24.30;6.35;;;19.80;99.90;;;;;;5020697;28;20091;-73
2023/09/18 04:00:52;;;;;;;21.00;4.60;;;20.20;99.90;;;;;;5016191;28;20036;-72
2023/09/18 04:03:18;;;;;;;18.90;5.57;;;19.60;99.90;;;;;;5018007;28;20405;-73
2023/09/18 04:05:44;;;;;;;18.77;5.13;;;19.70;99.90;;;;;;5009841;28;20033;-73
2023/09/18 04:08:10;;;;;;;44.35;7.35;;;20.10;99.90;;;;;;5020245;28;20037;-73
2023/09/18 04:10:36;;;;;;;21.42;5.10;;;19.80;99.90;;;;;;5016617;28;20251;-72
2023/09/18 04:13:02;;;;;;;19.42;5.45;;;20.10;99.90;;;;;;5013934;28;20029;-74
2023/09/18 04:15:30;;;;;;;30.97;5.73;;;20.30;99.90;;;;;;5013065;28;20065;-73
2023/09/18 04:17:56;;;;;;;23.25;5.32;;;20.10;99.90;;;;;;5024533;28;20298;-73
2023/09/18 04:20:22;;;;;;;22.83;5.68;;;20.00;99.90;;;;;;5014505;28;20025;-74
2023/09/18 04:23:21;;;;;;;36.05;7.07;;;19.70;99.90;;;;;;5014762;28;20026;-73
2023/09/18 04:25:47;;;;;;;19.27;5.05;;;19.60;99.90;;;;;;5012455;28;20026;-73
2023/09/18 04:28:15;;;;;;;18.42;5.07;;;19.40;99.90;;;;;;5017356;28;20045;-74
2023/09/18 04:30:41;;;;;;;17.77;5.60;;;19.60;99.90;;;;;;5015354;28;20030;-73
2023/09/18 04:33:07;;;;;;;23.13;4.77;;;19.30;99.90;;;;;;5015612;28;20394;-75
2023/09/18 04:35:33;;;;;;;16.30;4.72;;;19.10;99.90;;;;;;5023354;28;20044;-73
2023/09/18 04:37:59;;;;;;;20.63;4.50;;;18.90;99.90;;;;;;5015769;28;20452;-74
2023/09/18 04:40:31;;;;;;;;;;;19.00;99.90;;;;;;5018469;28;20028;-76
2023/09/18 04:42:58;;;;;;;18.45;5.43;;;18.70;99.90;;;;;;5014225;28;19917;-74
2023/09/18 04:45:25;;;;;;;14.88;4.53;;;18.80;99.90;;;;;;5019502;28;20034;-74
2023/09/18 04:47:51;;;;;;;19.70;4.97;;;18.70;99.90;;;;;;5013389;28;20017;-73
2023/09/18 04:50:17;;;;;;;21.50;5.18;;;18.70;99.90;;;;;;5018648;28;20313;-73
2023/09/18 04:52:43;;;;;;;16.67;4.77;;;18.90;99.90;;;;;;5016431;28;20128;-73
2023/09/18 04:55:09;;;;;;;25.15;5.15;;;19.00;99.90;;;;;;5013822;28;20380;-73
2023/09/18 04:57:35;;;;;;;15.30;5.53;;;19.00;99.90;;;;;;5016878;28;20033;-73
2023/09/18 05:00:02;;;;;;;20.70;6.82;;;19.30;99.90;;;;;;5013962;28;20037;-73
2023/09/18 05:02:30;;;;;;;19.75;5.13;;;19.40;99.90;;;;;;5013444;28;20494;-73
2023/09/18 05:04:56;;;;;;;18.77;4.80;;;19.40;99.90;;;;;;5016449;28;20030;-73
2023/09/18 05:07:22;;;;;;;12.43;4.75;;;19.40;99.90;;;;;;5017267;28;20025;-73
2023/09/18 05:09:47;;;;;;;13.80;3.88;;;19.50;99.90;;;;;;5018498;28;20059;-74
2023/09/18 05:12:15;;;;;;;12.03;3.10;;;19.50;99.90;;;;;;5014003;28;20053;-73
2023/09/18 05:14:41;;;;;;;12.45;3.78;;;19.60;99.90;;;;;;5020666;28;20029;-73
2023/09/18 05:17:16;;;;;;;9.90;3.22;;;19.50;99.90;;;;;;5015870;28;20092;-74
2023/09/18 05:19:42;;;;;;;9.98;3.53;;;19.50;99.90;;;;;;5016052;28;20494;-73
2023/09/18 05:22:11;;;;;;;8.60;2.70;;;19.20;99.90;;;;;;5010941;28;20142;-73
2023/09/18 05:24:40;;;;;;;9.60;2.63;;;19.50;99.90;;;;;;5015078;28;20038;-74
2023/09/18 05:27:07;;;;;;;5.35;2.20;;;19.40;99.90;;;;;;5016658;28;20045;-73
2023/09/18 05:29:32;;;;;;;;;;;19.40;99.90;;;;;;5017855;28;20033;-73
2023/09/18 05:31:58;;;;;;;18.52;4.80;;;19.30;99.90;;;;;;5015510;28;19921;-73
2023/09/18 05:34:24;;;;;;;15.95;3.88;;;19.50;99.90;;;;;;5019355;28;20513;-73
2023/09/18 05:36:49;;;;;;;13.93;3.27;;;19.50;99.90;;;;;;5016162;28;20042;-74
2023/09/18 05:39:16;;;;;;;9.65;3.63;;;19.20;99.90;;;;;;5017809;28;20946;-73
2023/09/18 05:41:42;;;;;;;12.20;3.50;;;19.00;99.90;;;;;;5016726;28;20136;-74
2023/09/18 05:44:09;;;;;;;10.50;3.60;;;19.20;99.90;;;;;;5020990;28;20105;-73
2023/09/18 05:46:35;;;;;;;9.30;2.78;;;19.40;99.90;;;;;;5015617;28;20033;-72
2023/09/18 05:49:01;;;;;;;;;;;18.90;99.90;;;;;;5014587;28;20018;-73
2023/09/18 05:51:27;;;;;;;15.60;2.35;;;18.60;99.90;;;;;;5022295;28;20301;-75
2023/09/18 05:53:53;;;;;;;8.40;2.25;;;18.90;99.90;;;;;;5016660;28;20401;-75
2023/09/18 05:56:18;;;;;;;4.55;1.90;;;19.00;99.90;;;;;;5011702;28;20182;-74
2023/09/18 05:58:44;;;;;;;9.00;2.10;;;19.00;99.90;;;;;;5018225;28;20494;-74
2023/09/18 06:01:10;;;;;;;8.27;2.70;;;18.90;99.90;;;;;;5015529;28;20292;-74
2023/09/18 06:03:36;;;;;;;9.00;2.60;;;18.90;99.90;;;;;;5013892;28;20096;-74
2023/09/18 06:06:05;;;;;;;5.60;2.78;;;19.20;99.90;;;;;;5014756;28;20038;-75
2023/09/18 06:08:31;;;;;;;5.93;2.10;;;18.80;99.90;;;;;;5024654;28;20069;-70
2023/09/18 06:10:57;;;;;;;6.22;3.30;;;18.70;99.90;;;;;;5014461;28;20417;-71
2023/09/18 06:13:24;;;;;;;9.27;3.15;;;18.60;99.90;;;;;;5019702;28;20401;-72
2023/09/18 06:15:52;;;;;;;5.68;3.13;;;19.00;99.90;;;;;;5015246;28;20032;-73
2023/09/18 06:18:20;;;;;;;5.20;2.63;;;19.10;99.90;;;;;;5013788;28;20956;-70
2023/09/18 06:20:46;;;;;;;13.68;3.10;;;19.00;99.90;;;;;;5016585;28;20076;-72
2023/09/18 06:23:12;;;;;;;7.97;2.78;;;19.20;99.90;;;;;;5016080;28;20033;-72
2023/09/18 06:25:39;;;;;;;7.38;2.70;;;19.30;99.90;;;;;;5018192;28;20044;-72
2023/09/18 06:28:05;;;;;;;10.75;3.38;;;19.20;99.90;;;;;;5019817;28;20037;-74
2023/09/18 06:30:33;;;;;;;3.78;2.20;;;19.30;99.90;;;;;;5019626;28;20025;-74
2023/09/18 06:32:59;;;;;;;10.10;2.35;;;19.40;99.90;;;;;;5018485;28;20054;-73
2023/09/18 06:35:25;;;;;;;10.48;2.35;;;19.40;99.90;;;;;;5020871;28;20084;-72
2023/09/18 06:37:50;;;;;;;9.53;2.57;;;19.40;99.90;;;;;;5020199;28;20037;-75
2023/09/18 06:40:17;;;;;;;7.43;2.47;;;19.30;99.90;;;;;;5020620;28;20030;-71
2023/09/18 06:42:43;;;;;;;6.55;2.13;;;19.20;99.90;;;;;;5016763;28;20038;-73
2023/09/18 06:45:09;;;;;;;4.43;1.80;;;19.20;99.90;;;;;;5014857;28;20034;-73
2023/09/18 06:47:34;;;;;;;7.32;2.58;;;19.20;99.90;;;;;;5018400;28;20594;-71
2023/09/18 06:50:01;;;;;;;6.17;2.23;;;19.30;99.90;;;;;;5024650;28;20139;-72
2023/09/18 06:52:28;;;;;;;8.07;2.05;;;19.30;99.90;;;;;;5024259;28;20303;-71
2023/09/18 06:54:53;;;;;;;4.47;1.60;;;19.20;99.90;;;;;;5024589;28;20029;-72
2023/09/18 06:57:21;;;;;;;7.95;1.92;;;19.20;99.90;;;;;;5022708;28;20033;-71
2023/09/18 06:59:47;;;;;;;4.70;1.80;;;19.30;99.90;;;;;;5020103;28;20034;-72
2023/09/18 07:02:14;;;;;;;4.93;1.90;;;19.20;99.90;;;;;;5012993;28;20686;-70
2023/09/18 07:04:44;;;;;;;7.00;3.40;;;18.90;99.90;;;;;;5018767;28;20033;-71
2023/09/18 07:07:12;;;;;;;4.97;1.83;;;18.80;99.90;;;;;;5032938;28;20036;-70
2023/09/18 07:09:38;;;;;;;2.33;1.80;;;19.10;99.90;;;;;;5017860;28;20044;-72
2023/09/18 07:12:04;;;;;;;6.50;2.30;;;19.20;99.90;;;;;;5018625;28;20545;-72
2023/09/18 07:14:30;;;;;;;5.38;1.70;;;19.10;99.90;;;;;;5016144;28;20448;-72
2023/09/18 07:16:56;;;;;;;7.47;2.22;;;19.10;99.90;;;;;;5021071;28;20398;-70
2023/09/18 07:19:22;;;;;;;5.57;1.73;;;19.00;99.90;;;;;;5018111;28;20030;-71
2023/09/18 07:21:48;;;;;;;7.43;1.90;;;19.00;99.90;;;;;;5016338;28;20064;-72
2023/09/18 07:24:16;;;;;;;5.73;1.80;;;19.20;99.90;;;;;;5018833;28;20040;-71
2023/09/18 07:26:45;;;;;;;6.82;2.00;;;19.20;99.90;;;;;;5015607;28;20030;-71
2023/09/18 07:29:11;;;;;;;10.13;2.28;;;19.20;99.90;;;;;;5016876;28;20058;-71
2023/09/18 07:31:36;;;;;;;4.30;2.27;;;19.20;99.90;;;;;;5016694;28;20538;-71
2023/09/18 07:34:04;;;;;;;10.97;2.30;;;18.70;99.90;;;;;;5018623;28;20536;-71
2023/09/18 07:36:29;;;;;;;7.20;2.13;;;18.30;99.90;;;;;;5022067;28;20040;-73
2023/09/18 07:38:56;;;;;;;8.90;2.00;;;18.70;99.90;;;;;;5017919;28;20033;-73
2023/09/18 07:41:22;;;;;;;;;;;18.60;99.90;;;;;;5022478;28;20038;-74
2023/09/18 07:43:48;;;;;;;12.80;2.53;;;18.70;99.90;;;;;;5021784;28;20004;-73
2023/09/18 07:46:13;;;;;;;8.37;2.20;;;18.70;99.90;;;;;;5018834;28;20081;-75
2023/09/18 07:48:39;;;;;;;7.10;2.67;;;18.70;99.90;;;;;;5021357;28;20026;-72
2023/09/18 07:51:05;;;;;;;3.70;2.03;;;18.90;99.90;;;;;;5020538;28;20037;-73
2023/09/18 07:53:32;;;;;;;8.38;2.40;;;18.80;99.90;;;;;;5015615;28;20041;-69
2023/09/18 07:55:58;;;;;;;6.57;2.40;;;18.90;99.90;;;;;;5020123;28;20064;-72
2023/09/18 07:58:27;;;;;;;5.53;2.30;;;18.80;99.90;;;;;;5019649;28;20105;-72
2023/09/18 08:00:55;;;;;;;6.72;2.78;;;18.60;99.90;;;;;;5013780;28;20038;-74
2023/09/18 08:03:22;;;;;;;7.70;3.30;;;18.60;99.90;;;;;;5022331;28;20041;-71
2023/09/18 08:05:53;;;;;;;11.75;4.22;;;18.50;99.90;;;;;;5021140;28;20060;-73
2023/09/18 08:08:20;;;;;;;7.95;3.72;;;18.60;99.90;;;;;;5023170;28;20045;-73
2023/09/18 08:10:49;;;;;;;7.43;3.30;;;18.60;99.90;;;;;;5015766;28;20026;-70
2023/09/18 08:13:14;;;;;;;11.30;3.67;;;18.40;99.90;;;;;;5016685;28;20067;-74
2023/09/18 08:15:40;;;;;;;7.53;3.67;;;18.30;99.90;;;;;;5015359;28;20481;-70
2023/09/18 08:18:06;;;;;;;21.77;3.73;;;18.00;99.90;;;;;;5020811;28;20033;-76
2023/09/18 08:23:55;;;;;;;7.68;2.75;;;17.90;99.90;;;;;;5021432;28;20122;-76
2023/09/18 08:26:21;;;;;;;7.00;2.47;;;17.80;99.90;;;;;;5022358;28;20064;-73
2023/09/18 08:28:47;;;;;;;12.18;3.38;;;17.80;99.90;;;;;;5020466;28;20040;-73
2023/09/18 08:31:14;;;;;;;7.82;3.05;;;17.80;99.90;;;;;;5016615;28;20046;-73
2023/09/18 08:33:39;;;;;;;;;;;17.80;99.90;;;;;;5015966;28;20021;-74
2023/09/18 08:36:05;;;;;;;11.15;3.17;;;17.70;99.90;;;;;;5017452;28;19916;-73
2023/09/18 08:38:31;;;;;;;7.95;3.47;;;17.80;99.90;;;;;;5016301;28;20062;-74
2023/09/18 08:40:58;;;;;;;8.45;2.90;;;17.70;99.90;;;;;;5014864;28;20136;-70
2023/09/18 08:43:25;;;;;;;6.53;2.75;;;17.70;99.90;;;;;;5017106;28;20017;-69
2023/09/18 08:45:55;;;;;;;9.85;3.35;;;18.00;99.90;;;;;;5017196;28;20141;-71
2023/09/18 08:48:21;;;;;;;7.10;3.25;;;18.10;99.90;;;;;;5015934;28;20103;-75
2023/09/18 08:50:51;;;;;;;10.27;3.47;;;17.90;99.90;;;;;;5013706;28;20580;-74
2023/09/18 08:53:17;;;;;;;10.80;3.13;;;17.70;99.90;;;;;;5020853;28;20527;-74
2023/09/18 08:55:42;;;;;;;10.63;3.20;;;17.70;99.90;;;;;;5014605;28;20022;-76
2023/09/18 08:58:08;;;;;;;11.38;3.85;;;17.70;99.90;;;;;;5033425;28;20037;-80
2023/09/18 09:00:37;;;;;;;8.85;3.95;;;18.00;99.90;;;;;;5016103;28;20549;-74
2023/09/18 09:03:04;;;;;;;12.68;3.25;;;18.10;99.90;;;;;;5021883;28;20064;-77
2023/09/18 09:05:31;;;;;;;8.05;2.70;;;17.80;99.90;;;;;;5018653;28;20024;-76
2023/09/18 09:07:57;;;;;;;10.48;2.70;;;17.80;99.90;;;;;;5015097;28;20462;-78
2023/09/18 09:10:22;;;;;;;9.00;3.20;;;17.70;99.90;;;;;;5015980;28;20057;-73
2023/09/18 09:12:55;;;;;;;9.30;2.50;;;17.70;99.90;;;;;;5017918;28;20781;-76
2023/09/18 09:15:32;;;;;;;10.82;2.53;;;17.80;99.90;;;;;;5016747;28;20831;-74
2023/09/18 09:18:08;;;;;;;9.67;2.83;;;17.70;99.90;;;;;;5017378;28;20513;-74
2023/09/18 09:20:35;;;;;;;9.38;2.95;;;17.70;99.90;;;;;;5017563;28;20381;-73
2023/09/18 09:23:09;;;;;;;10.88;3.17;;;17.60;99.90;;;;;;5017294;28;20041;-72
2023/09/18 09:25:35;;;;;;;7.65;2.97;;;17.60;99.90;;;;;;5021074;28;20032;-71
2023/09/18 09:28:05;;;;;;;8.98;3.90;;;17.70;99.90;;;;;;5017287;28;20506;-72
2023/09/18 09:30:32;;;;;;;11.23;3.58;;;17.80;99.90;;;;;;5015548;28;20036;-72
2023/09/18 09:32:59;;;;;;;13.13;3.53;;;17.90;99.90;;;;;;5013992;28;20045;-72
2023/09/18 09:35:29;;;;;;;9.63;3.47;;;18.00;99.90;;;;;;5020710;28;20432;-73
2023/09/18 09:38:01;;;;;;;10.02;3.63;;;18.00;99.90;;;;;;5013586;28;20030;-71
2023/09/18 09:40:28;;;;;;;9.88;3.83;;;18.00;99.90;;;;;;5017712;28;20148;-72
2023/09/18 09:43:02;;;;;;;15.55;3.83;;;17.90;99.90;;;;;;5013007;28;20490;-72
2023/09/18 09:45:38;;;;;;;8.10;3.35;;;17.70;99.90;;;;;;5017436;28;20026;-72
2023/09/18 09:48:08;;;;;;;6.72;3.20;;;17.80;99.90;;;;;;5014136;28;20485;-72
2023/09/18 09:50:46;;;;;;;10.60;3.20;;;17.90;99.90;;;;;;5013407;28;20021;-71
2023/09/18 09:53:13;;;;;;;9.15;2.90;;;17.70;99.90;;;;;;5018675;28;20053;-72
2023/09/18 09:55:38;;;;;;;7.32;2.92;;;17.70;99.90;;;;;;5016167;28;20037;-71
2023/09/18 09:58:06;;;;;;;6.67;2.60;;;17.70;99.90;;;;;;5020299;28;20490;-72
2023/09/18 10:00:45;;;;;;;9.43;2.78;;;17.60;99.90;;;;;;5017128;28;20892;-72
2023/09/18 10:03:13;;;;;;;7.53;2.63;;;17.70;99.90;;;;;;5019207;28;20112;-72
2023/09/18 10:05:43;;;;;;;6.18;2.38;;;17.70;99.90;;;;;;5018800;28;20127;-72
2023/09/18 10:08:16;;;;;;;7.28;2.40;;;17.80;99.90;;;;;;5020095;28;20037;-72
2023/09/18 10:10:51;;;;;;;8.93;2.80;;;17.90;99.90;;;;;;5023527;28;20033;-73
2023/09/18 10:13:20;;;;;;;8.02;2.83;;;18.00;99.90;;;;;;5019215;28;20045;-72
2023/09/18 10:15:49;;;;;;;5.13;2.60;;;18.00;99.90;;;;;;5017607;28;20037;-73
2023/09/18 10:18:42;;;;;;;5.53;2.95;;;17.90;99.90;;;;;;5018156;28;20037;-73
2023/09/18 10:21:31;;;;;;;7.13;3.20;;;18.00;99.90;;;;;;5015289;28;20038;-74
2023/09/18 10:24:37;;;;;;;7.18;2.17;;;17.90;99.90;;;;;;5023041;28;20037;-72
2023/09/18 10:27:05;;;;;;;5.78;2.55;;;17.60;99.90;;;;;;5016232;28;20041;-73
2023/09/18 10:29:33;;;;;;;5.28;2.50;;;17.60;99.90;;;;;;5021988;28;20021;-75
2023/09/18 10:32:01;;;;;;;9.45;2.42;;;17.80;99.90;;;;;;5022168;28;20127;-72
2023/09/18 10:34:30;;;;;;;12.18;2.63;;;17.90;99.90;;;;;;5027528;28;20501;-73
2023/09/18 10:36:56;;;;;;;6.13;2.58;;;17.90;99.90;;;;;;5023816;28;20022;-71
2023/09/18 10:39:26;;;;;;;5.57;2.80;;;17.90;99.90;;;;;;5020821;28;20029;-73
2023/09/18 10:42:01;;;;;;;6.65;3.20;;;17.80;99.90;;;;;;5019089;28;20545;-71
2023/09/18 10:44:29;;;;;;;9.35;3.15;;;17.90;99.90;;;;;;5015962;28;20046;-71
2023/09/18 10:46:55;;;;;;;9.13;3.28;;;17.80;99.90;;;;;;5022109;28;20045;-71
2023/09/18 10:49:21;;;;;;;7.37;3.10;;;18.00;99.90;;;;;;5017808;28;20037;-71
2023/09/18 10:51:48;;;;;;;6.90;3.33;;;18.00;99.90;;;;;;5019374;28;20045;-71
2023/09/18 10:54:21;;;;;;;5.90;3.35;;;18.10;99.90;;;;;;5021241;28;20432;-72
2023/09/18 10:56:47;;;;;;;7.78;3.50;;;18.00;99.90;;;;;;5023518;28;20026;-72
2023/09/18 10:59:15;;;;;;;12.50;3.55;;;17.90;99.90;;;;;;5023810;28;20029;-72
2023/09/18 11:01:41;;;;;;;8.70;3.05;;;18.00;99.90;;;;;;5018622;28;20472;-72
2023/09/18 11:04:09;;;;;;;5.45;2.83;;;18.00;99.90;;;;;;5021169;28;20042;-72
2023/09/18 11:06:53;;;;;;;8.38;3.90;;;18.10;99.90;;;;;;5019409;28;20506;-70
2023/09/18 11:09:23;;;;;;;9.52;2.53;;;18.00;99.90;;;;;;5020229;28;20052;-73
2023/09/18 11:12:03;;;;;;;7.60;3.60;;;18.00;99.90;;;;;;5020603;28;20095;-71
2023/09/18 11:14:49;;;;;;;8.35;3.15;;;18.10;99.90;;;;;;5017001;28;20043;-71
2023/09/18 11:17:36;;;;;;;7.57;2.65;;;18.20;99.90;;;;;;5017871;28;20036;-72
2023/09/18 11:20:15;;;;;;;6.55;2.60;;;18.30;99.90;;;;;;5016193;28;20441;-71
2023/09/18 11:22:57;;;;;;;6.63;2.67;;;18.20;99.90;;;;;;5018563;28;20060;-72
2023/09/18 11:25:45;;;;;;;8.63;3.13;;;18.30;99.90;;;;;;5018164;28;20029;-72
2023/09/18 11:28:25;;;;;;;10.43;3.60;;;18.30;99.90;;;;;;5020934;28;20063;-71
2023/09/18 11:30:58;;;;;;;10.05;3.83;;;18.10;99.90;;;;;;5016290;28;20051;-71
2023/09/18 11:33:33;;;;;;;8.85;3.58;;;18.20;99.90;;;;;;5020602;28;20550;-71
2023/09/18 11:36:05;;;;;;;8.57;3.30;;;18.30;99.90;;;;;;5017184;28;20029;-71
2023/09/18 11:38:33;;;;;;;9.35;3.60;;;18.40;99.90;;;;;;5015189;28;20033;-72
2023/09/18 11:41:01;;;;;;;6.57;3.17;;;18.40;99.90;;;;;;5013405;28;20117;-72
2023/09/18 11:43:35;;;;;;;5.25;2.88;;;18.50;99.90;;;;;;5021273;28;20818;-72
2023/09/18 11:46:04;;;;;;;14.02;3.40;;;18.20;99.90;;;;;;5022073;28;20088;-71
2023/09/18 11:48:36;;;;;;;9.63;2.45;;;18.20;99.90;;;;;;5016752;28;20108;-74
2023/09/18 11:51:04;;;;;;;6.43;3.00;;;18.30;99.90;;;;;;5014934;28;20520;-71
2023/09/18 11:53:36;;;;;;;4.65;2.53;;;18.30;99.90;;;;;;5018752;28;20025;-72
2023/09/18 11:56:03;;;;;;;10.38;3.35;;;18.30;99.90;;;;;;5019102;28;20034;-71
2023/09/18 11:58:29;;;;;;;;;;;18.20;99.90;;;;;;5024912;28;20056;-72
2023/09/18 12:00:55;;;;;;;8.95;2.33;;;18.40;99.90;;;;;;5023188;28;20421;-73
2023/09/18 12:03:25;;;;;;;5.70;3.05;;;18.50;99.90;;;;;;5016852;28;20025;-71
2023/09/18 12:05:54;;;;;;;8.27;2.58;;;18.60;99.90;;;;;;5019743;28;20079;-70
2023/09/18 12:08:20;;;;;;;8.00;3.88;;;18.50;99.90;;;;;;5019205;28;20040;-72
2023/09/18 12:10:52;;;;;;;9.90;3.55;;;18.70;99.90;;;;;;5013011;28;20052;-70
2023/09/18 12:13:18;;;;;;;5.80;2.33;;;18.80;99.90;;;;;;5010559;28;20048;-71
2023/09/18 12:15:44;;;;;;;5.97;2.70;;;18.70;99.90;;;;;;5015539;28;20053;-71
2023/09/18 12:18:14;;;;;;;5.57;2.90;;;18.80;99.90;;;;;;5015615;28;20073;-71
2023/09/18 12:20:49;;;;;;;7.25;3.05;;;18.90;99.90;;;;;;5016618;28;20026;-73
2023/09/18 12:23:21;;;;;;;5.68;2.28;;;19.10;99.90;;;;;;5020304;28;20057;-72
2023/09/18 12:25:56;;;;;;;7.45;1.95;;;19.00;99.90;;;;;;5014428;28;20042;-73
2023/09/18 12:28:22;;;;;;;2.65;1.85;;;18.90;99.90;;;;;;5017392;28;20037;-70
2023/09/18 12:30:50;;;;;;;4.37;2.20;;;18.80;99.90;;;;;;5016196;28;20484;-73
2023/09/18 12:33:16;;;;;;;4.65;2.30;;;18.80;99.90;;;;;;5035499;28;20784;-74
2023/09/18 12:35:42;;;;;;;4.70;2.13;;;18.80;99.90;;;;;;5017224;28;20432;-73
2023/09/18 12:38:18;;;;;;;5.10;2.30;;;18.70;99.90;;;;;;5019164;28;20080;-74
2023/09/18 12:40:46;;;;;;;13.27;2.63;;;18.60;99.90;;;;;;5016993;28;20064;-75
2023/09/18 12:43:15;;;;;;;3.97;2.22;;;18.60;99.90;;;;;;5018258;28;20102;-74
2023/09/18 12:45:42;;;;;;;6.05;3.80;;;18.50;99.90;;;;;;5015957;28;20021;-75
2023/09/18 12:48:09;;;;;;;5.28;2.00;;;18.50;99.90;;;;;;5017273;28;20059;-76
2023/09/18 12:50:34;;;;;;;6.70;2.53;;;18.50;99.90;;;;;;5018627;28;20025;-73
2023/09/18 12:53:15;;;;;;;4.15;2.25;;;18.70;99.90;;;;;;5018306;28;20191;-69